Time;durP1;ratioP1;P1;durP2;ratioP2;P2;SDS_P1;SDS_P2;PMS_P1;PMS_P2;Temp;Humidity;BMP_temperature;BMP_pressure;BME280_temperature;BME280_humidity;BME280_pressure;Samples;Min_cycle;Max_cycle;Signal;HPM_P1;HPM_P2
2022/10/23 00:05:36;;;;;;;;;;;;;;;;;;;;;
2022/10/23 00:08:42;;;;;;;;;;;;;;;;;;;;;
2022/10/23 00:15:13;;;;;;;;;;;;;;;;;;;;;
2022/10/23 00:39:49;;;;;;;33.05;19.40;;;;;;;;;;5003385;28;20043;-83
2022/10/23 01:05:12;;;;;;;;;;;;;;;;;;;;;
2022/10/23 01:07:55;;;;;;;29.92;15.82;;;;;;;;;;4885735;29;20124;-80
2022/10/23 01:10:26;;;;;;;26.52;14.80;;;;;;;;;;4910666;29;20039;-82
2022/10/23 01:22:58;;;;;;;;;;;;;;;;;;;;;
2022/10/23 01:25:56;;;;;;;;;;;;;;;;;;;;;
2022/10/23 01:28:54;;;;;;;19.85;8.43;;;;;;;;;;5059252;28;20088;-80
2022/10/23 01:31:41;;;;;;;13.73;6.75;;;;;;;;;;4994102;28;20034;-80
2022/10/23 01:34:38;;;;;;;22.35;12.02;;;;;;;;;;5056459;28;20051;-79
2022/10/23 01:37:14;;;;;;;21.13;11.68;;;;;;;;;;4958767;28;20030;-78
2022/10/23 01:43:20;;;;;;;31.60;17.27;;;;;;;;;;5037505;28;20037;-81
2022/10/23 01:46:18;;;;;;;26.58;16.27;;;;;;;;;;5048319;28;20044;-83
2022/10/23 01:59:28;;;;;;;25.33;15.18;;;;;;;;;;5034604;28;20103;-80
2022/10/23 02:02:07;;;;;;;20.85;13.63;;;;;;;;;;5013741;28;20029;-80
2022/10/23 02:04:43;;;;;;;23.23;13.75;;;;;;;;;;5021741;28;20030;-79
2022/10/23 02:07:27;;;;;;;33.53;16.08;;;;;;;;;;4989974;28;20076;-79
2022/10/23 02:10:04;;;;;;;31.45;18.33;;;;;;;;;;5026858;28;20026;-80
2022/10/23 02:12:36;;;;;;;26.80;15.13;;;;;;;;;;5017691;23;20471;-79
2022/10/23 02:15:11;;;;;;;28.35;16.67;;;;;;;;;;5012495;28;20022;-78
2022/10/23 02:17:54;;;;;;;21.63;14.27;;;;;;;;;;5012919;28;20178;-79
2022/10/23 02:20:37;;;;;;;19.77;13.88;;;;;;;;;;5015232;28;20018;-80
2022/10/23 02:23:27;;;;;;;26.25;14.88;;;;;;;;;;4999522;28;20504;-80
2022/10/23 02:26:00;;;;;;;27.38;16.35;;;;;;;;;;5003017;28;20030;-80
2022/10/23 02:28:59;;;;;;;25.10;16.25;;;;;;;;;;4999891;28;20476;-80
2022/10/23 02:31:27;;;;;;;28.60;16.00;;;;;;;;;;4985570;28;20054;-80
2022/10/23 02:33:54;;;;;;;25.35;16.15;;;;;;;;;;4992696;28;20045;-79
2022/10/23 02:36:22;;;;;;;26.38;14.80;;;;;;;;;;4987932;28;20025;-79
2022/10/23 02:38:48;;;;;;;21.88;12.73;;;;;;;;;;4994180;28;20476;-79
2022/10/23 02:41:38;;;;;;;18.92;12.02;;;;;;;;;;4995511;28;20066;-79
2022/10/23 02:44:23;;;;;;;23.40;14.88;;;;;;;;;;4995047;28;20045;-79
2022/10/23 02:46:53;;;;;;;24.30;16.08;;;;;;;;;;5007321;28;20103;-82
2022/10/23 02:49:22;;;;;;;25.48;15.85;;;;;;;;;;4983626;28;20469;-79
2022/10/23 02:52:00;;;;;;;29.58;17.00;;;;;;;;;;5003007;28;20027;-80
2022/10/23 02:54:45;;;;;;;21.48;14.40;;;;;;;;;;4998749;28;20109;-79
2022/10/23 02:57:23;;;;;;;23.63;14.80;;;;;;;;;;5000891;28;20468;-81
2022/10/23 02:59:58;;;;;;;23.85;15.23;;;;;;;;;;5000498;28;20036;-80
2022/10/23 03:02:26;;;;;;;32.38;17.08;;;;;;;;;;5001891;28;20026;-82
2022/10/23 03:04:53;;;;;;;33.15;17.83;;;;;;;;;;4999091;28;20026;-79
2022/10/23 03:07:20;;;;;;;31.45;18.60;;;;;;;;;;5000955;28;20026;-81
2022/10/23 03:09:47;;;;;;;28.33;16.85;;;;;;;;;;5000917;28;20028;-82
2022/10/23 03:12:13;;;;;;;28.55;17.65;;;;;;;;;;5008293;28;20027;-82
2022/10/23 03:14:39;;;;;;;30.67;18.23;;;;;;;;;;5011782;28;20034;-83
2022/10/23 03:17:05;;;;;;;30.60;17.33;;;;;;;;;;5007914;28;20086;-81
2022/10/23 03:19:34;;;;;;;28.98;16.98;;;;;;;;;;5009012;28;20019;-81
2022/10/23 03:22:00;;;;;;;23.15;15.82;;;;;;;;;;5007118;28;20087;-81
2022/10/23 03:24:29;;;;;;;24.40;16.17;;;;;;;;;;5008008;28;20053;-81
2022/10/23 03:27:10;;;;;;;34.58;18.17;;;;;;;;;;4990188;28;20065;-81
2022/10/23 03:29:39;;;;;;;30.08;17.70;;;;;;;;;;5011075;28;20030;-82
2022/10/23 03:32:05;;;;;;;23.70;16.08;;;;;;;;;;4998730;28;20401;-83
2022/10/23 03:34:32;;;;;;;35.35;18.25;;;;;;;;;;5008503;28;20027;-83
2022/10/23 03:37:03;;;;;;;31.55;19.25;;;;;;;;;;5010852;28;20018;-84
2022/10/23 03:39:29;;;;;;;27.63;17.65;;;;;;;;;;4994926;28;20034;-82
2022/10/23 03:41:55;;;;;;;31.77;17.95;;;;;;;;;;5011890;28;20036;-81
2022/10/23 03:44:21;;;;;;;29.65;18.17;;;;;;;;;;5007665;28;20027;-81
2022/10/23 03:46:50;;;;;;;33.50;19.90;;;;;;;;;;5009721;28;20027;-82
2022/10/23 03:49:18;;;;;;;35.28;19.52;;;;;;;;;;5012254;28;20037;-81
2022/10/23 03:51:50;;;;;;;36.83;21.40;;;;;;;;;;5012759;28;20501;-81
2022/10/23 03:54:19;;;;;;;40.00;21.60;;;;;;;;;;5011584;28;20025;-82
2022/10/23 03:56:48;;;;;;;39.83;22.05;;;;;;;;;;4995286;28;20029;-81
2022/10/23 03:59:14;;;;;;;43.58;22.15;;;;;;;;;;4995862;28;20267;-81
2022/10/23 04:01:40;;;;;;;30.20;19.23;;;;;;;;;;5012422;28;20085;-83
2022/10/23 04:04:06;;;;;;;30.60;19.27;;;;;;;;;;5008125;28;20519;-80
2022/10/23 04:06:32;;;;;;;36.83;19.70;;;;;;;;;;5004196;28;20018;-81
2022/10/23 04:08:58;;;;;;;35.40;20.35;;;;;;;;;;4992135;28;20477;-81
2022/10/23 04:11:24;;;;;;;32.85;20.60;;;;;;;;;;5010632;28;20077;-82
2022/10/23 04:13:50;;;;;;;40.42;20.85;;;;;;;;;;5009096;28;20086;-81
2022/10/23 04:16:16;;;;;;;35.13;20.33;;;;;;;;;;5010353;28;20023;-81
2022/10/23 04:18:43;;;;;;;33.30;19.80;;;;;;;;;;5006367;28;20027;-81
2022/10/23 04:21:09;;;;;;;28.40;18.42;;;;;;;;;;5001989;28;20057;-81
2022/10/23 04:23:35;;;;;;;29.13;18.25;;;;;;;;;;5010949;28;20026;-81
2022/10/23 04:26:01;;;;;;;39.40;20.23;;;;;;;;;;5011185;28;20045;-81
2022/10/23 04:28:27;;;;;;;29.00;17.83;;;;;;;;;;5009974;28;20324;-81
2022/10/23 04:30:53;;;;;;;35.03;19.13;;;;;;;;;;5010439;28;20038;-83
2022/10/23 04:33:23;;;;;;;37.63;21.10;;;;;;;;;;5003764;28;20057;-81
2022/10/23 04:36:12;;;;;;;32.17;20.23;;;;;;;;;;5005231;28;20026;-80
2022/10/23 04:38:52;;;;;;;29.48;18.70;;;;;;;;;;5006561;28;20035;-82
2022/10/23 04:41:26;;;;;;;40.03;21.35;;;;;;;;;;5004408;28;20121;-81
2022/10/23 04:44:15;;;;;;;45.97;22.02;;;;;;;;;;5006128;28;20046;-82
2022/10/23 04:46:41;;;;;;;29.75;18.63;;;;;;;;;;5005580;28;20037;-81
2022/10/23 04:49:08;;;;;;;36.38;19.23;;;;;;;;;;5004692;28;20046;-81
2022/10/23 04:51:34;;;;;;;45.17;21.15;;;;;;;;;;5001959;28;20033;-81
2022/10/23 04:54:00;;;;;;;36.08;20.88;;;;;;;;;;5006650;28;20049;-82
2022/10/23 04:56:28;;;;;;;33.08;19.30;;;;;;;;;;5002214;28;20029;-82
2022/10/23 04:58:55;;;;;;;25.98;17.23;;;;;;;;;;4982689;28;20442;-83
2022/10/23 05:01:21;;;;;;;36.05;19.48;;;;;;;;;;5002661;28;20113;-82
2022/10/23 05:03:47;;;;;;;33.90;20.17;;;;;;;;;;5009426;28;20015;-81
2022/10/23 05:06:13;;;;;;;33.22;18.30;;;;;;;;;;4992503;28;20042;-81
2022/10/23 05:08:39;;;;;;;46.97;21.80;;;;;;;;;;5004272;28;20030;-79
2022/10/23 05:11:05;;;;;;;52.05;22.75;;;;;;;;;;5001846;28;20488;-79
2022/10/23 05:13:31;;;;;;;46.38;23.92;;;;;;;;;;5002692;28;20063;-79
2022/10/23 05:15:58;;;;;;;58.75;25.38;;;;;;;;;;5003240;28;20369;-79
2022/10/23 05:18:26;;;;;;;30.58;20.13;;;;;;;;;;4983470;28;20377;-80
2022/10/23 05:20:55;;;;;;;43.42;21.83;;;;;;;;;;5020577;23;20492;-79
2022/10/23 05:23:24;;;;;;;56.75;21.67;;;;;;;;;;5035034;28;20014;-79
2022/10/23 05:25:53;;;;;;;39.20;20.67;;;;;;;;;;5021531;28;20032;-81
2022/10/23 05:28:21;;;;;;;66.75;22.13;;;;;;;;;;5021742;28;20017;-80
2022/10/23 05:30:48;;;;;;;42.88;20.27;;;;;;;;;;5029837;28;20173;-78
2022/10/23 05:33:16;;;;;;;44.15;20.60;;;;;;;;;;5002870;28;20113;-81
2022/10/23 05:35:45;;;;;;;36.53;18.83;;;;;;;;;;4998995;28;20041;-81
2022/10/23 05:38:14;;;;;;;51.80;21.15;;;;;;;;;;5010628;28;20028;-80
2022/10/23 05:40:42;;;;;;;30.00;17.00;;;;;;;;;;4997736;28;20048;-80
2022/10/23 05:43:08;;;;;;;48.72;18.50;;;;;;;;;;5008926;28;20022;-80
2022/10/23 05:45:34;;;;;;;34.97;19.08;;;;;;;;;;4998378;28;20448;-80
2022/10/23 05:48:00;;;;;;;103.80;20.65;;;;;;;;;;5015018;28;20036;-80
2022/10/23 05:50:26;;;;;;;58.63;21.45;;;;;;;;;;4996498;28;20029;-81
2022/10/23 05:52:52;;;;;;;72.50;22.48;;;;;;;;;;5015786;28;20030;-81
2022/10/23 05:55:21;;;;;;;32.15;18.77;;;;;;;;;;5010446;28;20026;-81
2022/10/23 05:57:50;;;;;;;33.13;17.83;;;;;;;;;;5004228;28;20092;-82
2022/10/23 06:00:19;;;;;;;89.85;25.83;;;;;;;;;;5026081;28;20049;-81
2022/10/23 06:02:45;;;;;;;89.47;24.55;;;;;;;;;;5014564;28;20030;-82
2022/10/23 06:05:17;;;;;;;87.65;25.20;;;;;;;;;;5033604;28;20025;-80
2022/10/23 06:07:52;;;;;;;53.67;24.00;;;;;;;;;;5017045;28;20104;-83
2022/10/23 06:10:18;;;;;;;85.25;24.05;;;;;;;;;;5021474;28;20030;-85
2022/10/23 06:12:46;;;;;;;139.10;27.83;;;;;;;;;;5018512;28;20145;-82
2022/10/23 06:15:13;;;;;;;140.80;28.25;;;;;;;;;;5016381;28;20037;-84
2022/10/23 06:17:39;;;;;;;98.68;26.63;;;;;;;;;;5007082;28;20054;-81
2022/10/23 06:20:05;;;;;;;90.47;27.42;;;;;;;;;;5024493;28;20026;-81
2022/10/23 06:22:31;;;;;;;79.88;27.40;;;;;;;;;;5011147;28;20046;-84
2022/10/23 06:24:57;;;;;;;129.68;28.73;;;;;;;;;;5006180;28;20033;-81
2022/10/23 06:27:26;;;;;;;75.22;27.67;;;;;;;;;;5002777;28;20026;-82
2022/10/23 06:29:55;;;;;;;70.95;28.45;;;;;;;;;;4999312;28;20300;-81
2022/10/23 06:32:21;;;;;;;63.53;28.63;;;;;;;;;;5004101;28;20453;-81
2022/10/23 06:34:47;;;;;;;62.20;28.25;;;;;;;;;;5015058;28;20029;-84
2022/10/23 06:37:13;;;;;;;66.28;28.73;;;;;;;;;;5000151;28;20452;-82
2022/10/23 06:39:39;;;;;;;52.92;26.83;;;;;;;;;;5014849;28;20026;-83
2022/10/23 06:42:05;;;;;;;52.25;27.33;;;;;;;;;;5024375;28;20033;-81
2022/10/23 06:44:34;;;;;;;47.63;26.05;;;;;;;;;;5010406;28;20022;-84
2022/10/23 06:47:01;;;;;;;56.78;26.80;;;;;;;;;;5024756;28;20389;-81
2022/10/23 06:49:29;;;;;;;62.17;25.83;;;;;;;;;;5007199;28;20026;-82
2022/10/23 06:51:57;;;;;;;51.67;24.85;;;;;;;;;;5013666;28;20057;-84
2022/10/23 06:54:23;;;;;;;43.95;24.27;;;;;;;;;;5018327;28;20061;-81
2022/10/23 06:56:50;;;;;;;54.50;26.50;;;;;;;;;;5007160;28;20034;-81
2022/10/23 06:59:16;;;;;;;49.63;25.98;;;;;;;;;;5019459;28;20092;-82
2022/10/23 07:01:42;;;;;;;52.50;26.58;;;;;;;;;;5006366;28;20404;-83
2022/10/23 07:04:13;;;;;;;49.55;27.25;;;;;;;;;;5004143;28;20036;-83
2022/10/23 07:06:39;;;;;;;42.53;25.77;;;;;;;;;;5011876;28;20014;-81
2022/10/23 07:09:05;;;;;;;43.13;25.10;;;;;;;;;;5011150;28;20026;-82
2022/10/23 07:11:31;;;;;;;42.45;23.60;;;;;;;;;;5012049;28;20027;-81
2022/10/23 07:13:57;;;;;;;37.08;23.70;;;;;;;;;;5018708;28;20041;-79
2022/10/23 07:16:23;;;;;;;41.97;24.52;;;;;;;;;;5001586;28;20034;-81
2022/10/23 07:18:57;;;;;;;34.05;22.30;;;;;;;;;;5020627;28;20018;-78
2022/10/23 07:21:23;;;;;;;34.53;22.17;;;;;;;;;;5006772;28;20035;-80
2022/10/23 07:23:49;;;;;;;32.67;22.02;;;;;;;;;;4994161;28;20053;-79
2022/10/23 07:26:26;;;;;;;32.72;22.23;;;;;;;;;;5008045;28;20145;-80
2022/10/23 07:28:54;;;;;;;31.58;19.90;;;;;;;;;;4994435;28;20053;-80
2022/10/23 07:31:22;;;;;;;29.77;20.13;;;;;;;;;;5031840;23;20221;-81
2022/10/23 07:33:51;;;;;;;30.88;20.15;;;;;;;;;;5084676;28;20024;-81
2022/10/23 07:36:17;;;;;;;31.25;19.40;;;;;;;;;;5084273;28;20036;-81
2022/10/23 07:38:49;;;;;;;26.73;18.00;;;;;;;;;;5083362;28;20031;-80
2022/10/23 07:41:15;;;;;;;;;;;;;;;;;;5085486;28;20028;-82
2022/10/23 07:43:46;;;;;;;25.15;17.35;;;;;;;;;;5067172;28;19978;-80
2022/10/23 07:46:31;;;;;;;;;;;;;;;;;;;;;
2022/10/23 07:49:26;;;;;;;21.50;16.27;;;;;;;;;;5003915;28;20066;-89
2022/10/23 07:52:16;;;;;;;24.92;16.77;;;;;;;;;;4971730;28;20051;-86
2022/10/23 07:55:18;;;;;;;26.73;16.27;;;;;;;;;;4955682;28;20095;-83
2022/10/23 08:19:28;;;;;;;20.23;12.70;;;;;;;;;;5043114;28;20041;-82
2022/10/23 08:22:00;;;;;;;16.67;12.85;;;;;;;;;;5026625;28;20021;-85
2022/10/23 08:24:55;;;;;;;16.70;12.27;;;;;;;;;;5035503;28;20025;-85
2022/10/23 08:27:30;;;;;;;17.90;13.10;;;;;;;;;;5061364;28;20048;-83
2022/10/23 08:32:29;;;;;;;15.07;11.50;;;;;;;;;;5038897;22;20049;-79
2022/10/23 08:34:55;;;;;;;17.75;11.88;;;;;;;;;;5016553;28;20032;-80
2022/10/23 08:37:21;;;;;;;16.48;12.23;;;;;;;;;;5033745;28;20266;-77
2022/10/23 08:39:47;;;;;;;16.48;11.85;;;;;;;;;;5033029;28;20091;-76
2022/10/23 08:42:20;;;;;;;16.73;11.48;;;;;;;;;;5032764;28;20492;-79
2022/10/23 08:44:52;;;;;;;19.33;11.90;;;;;;;;;;5011635;28;20033;-78
2022/10/23 08:47:29;;;;;;;17.10;11.27;;;;;;;;;;5009618;28;20018;-79
2022/10/23 08:49:59;;;;;;;16.73;10.05;;;;;;;;;;5015176;28;20056;-78
2022/10/23 08:52:28;;;;;;;16.37;10.80;;;;;;;;;;5014351;28;20041;-80
2022/10/23 08:55:00;;;;;;;14.82;9.98;;;;;;;;;;5014421;28;20017;-79
2022/10/23 08:57:31;;;;;;;;;;;;;;;;;;5016132;28;20025;-79
2022/10/23 09:00:00;;;;;;;14.43;8.80;;;;;;;;;;5029058;28;20301;-77
2022/10/23 09:02:35;;;;;;;15.05;9.45;;;;;;;;;;5033979;28;20055;-80
2022/10/23 09:05:01;;;;;;;13.93;8.82;;;;;;;;;;5032396;28;20036;-79
2022/10/23 09:07:46;;;;;;;16.98;9.52;;;;;;;;;;5032765;28;20017;-79
2022/10/23 09:10:24;;;;;;;14.48;9.15;;;;;;;;;;5032193;28;20030;-78
2022/10/23 09:12:50;;;;;;;12.75;7.80;;;;;;;;;;5014595;28;20571;-78
2022/10/23 09:15:16;;;;;;;13.13;8.82;;;;;;;;;;5033315;28;20061;-80
2022/10/23 09:17:43;;;;;;;13.25;8.48;;;;;;;;;;5026295;28;20120;-79
2022/10/23 09:20:21;;;;;;;12.60;8.38;;;;;;;;;;5017447;28;20057;-78
2022/10/23 09:22:48;;;;;;;10.88;8.13;;;;;;;;;;5032736;28;20021;-79
2022/10/23 09:25:19;;;;;;;12.18;7.63;;;;;;;;;;5034297;28;20029;-79
2022/10/23 09:27:46;;;;;;;12.73;7.80;;;;;;;;;;5033654;28;20025;-79
2022/10/23 09:30:12;;;;;;;12.07;7.82;;;;;;;;;;5014276;28;20103;-79
2022/10/23 09:32:38;;;;;;;9.40;7.32;;;;;;;;;;5033094;28;20036;-78
2022/10/23 09:35:05;;;;;;;9.73;7.50;;;;;;;;;;5011902;28;20502;-78
2022/10/23 09:37:34;;;;;;;10.60;6.82;;;;;;;;;;5030069;28;20021;-78
2022/10/23 09:40:03;;;;;;;11.05;7.32;;;;;;;;;;5030018;28;20399;-78
2022/10/23 09:42:29;;;;;;;9.43;6.72;;;;;;;;;;5030442;28;20026;-78
2022/10/23 09:44:56;;;;;;;8.95;6.45;;;;;;;;;;5030510;28;20438;-78
2022/10/23 09:47:23;;;;;;;9.20;7.13;;;;;;;;;;5030457;28;20487;-77
2022/10/23 09:49:51;;;;;;;9.68;6.80;;;;;;;;;;5030028;28;20057;-77
2022/10/23 09:52:16;;;;;;;11.10;6.60;;;;;;;;;;5013591;28;20072;-78
2022/10/23 09:54:47;;;;;;;9.35;6.13;;;;;;;;;;5030920;28;20021;-78
2022/10/23 09:57:22;;;;;;;7.93;6.32;;;;;;;;;;5030928;28;20076;-78
2022/10/23 09:59:55;;;;;;;9.48;5.95;;;;;;;;;;5013056;28;20033;-78
2022/10/23 10:02:29;;;;;;;10.82;6.10;;;;;;;;;;5030904;28;20021;-78
2022/10/23 10:04:55;;;;;;;9.40;6.28;;;;;;;;;;5013885;28;20031;-79
2022/10/23 10:07:21;;;;;;;8.48;6.15;;;;;;;;;;5025186;28;20022;-77
2022/10/23 10:09:48;;;;;;;9.25;6.53;;;;;;;;;;5030708;28;20036;-78
2022/10/23 10:12:19;;;;;;;9.05;6.38;;;;;;;;;;5030489;28;20468;-78
2022/10/23 10:14:50;;;;;;;9.43;6.35;;;;;;;;;;5013138;28;20121;-78
2022/10/23 10:17:23;;;;;;;12.15;6.47;;;;;;;;;;5024177;28;20021;-78
2022/10/23 10:20:07;;;;;;;10.13;6.43;;;;;;;;;;5030998;28;20080;-77
2022/10/23 10:22:46;;;;;;;7.82;5.80;;;;;;;;;;5013255;28;20033;-78
2022/10/23 10:25:18;;;;;;;8.57;6.47;;;;;;;;;;5028346;28;20594;-78
2022/10/23 10:27:49;;;;;;;9.75;5.93;;;;;;;;;;5031847;28;20033;-79
2022/10/23 10:30:15;;;;;;;10.43;6.13;;;;;;;;;;5013190;28;20034;-79
2022/10/23 10:32:59;;;;;;;8.50;5.90;;;;;;;;;;5014861;28;20072;-80
2022/10/23 10:35:37;;;;;;;5.97;5.10;;;;;;;;;;5021528;28;20025;-79
2022/10/23 10:38:28;;;;;;;6.70;5.03;;;;;;;;;;5032444;28;20026;-79
2022/10/23 10:40:54;;;;;;;;;;;;;;;;;;5011338;28;20053;-79
2022/10/23 10:43:23;;;;;;;8.52;5.38;;;;;;;;;;5012420;28;19955;-78
2022/10/23 10:46:16;;;;;;;6.72;4.95;;;;;;;;;;5030448;28;20026;-78
2022/10/23 10:48:59;;;;;;;9.45;5.57;;;;;;;;;;5016192;28;20137;-79
2022/10/23 10:51:31;;;;;;;10.40;5.63;;;;;;;;;;5014937;28;20030;-78
2022/10/23 10:54:11;;;;;;;9.35;5.30;;;;;;;;;;5034388;28;20104;-79
2022/10/23 10:56:39;;;;;;;6.53;5.18;;;;;;;;;;5016956;28;20033;-79
2022/10/23 10:59:12;;;;;;;7.82;5.60;;;;;;;;;;5034729;28;20045;-79
2022/10/23 11:01:41;;;;;;;9.55;5.22;;;;;;;;;;5016708;28;20030;-79
2022/10/23 11:04:14;;;;;;;9.85;6.20;;;;;;;;;;5014514;28;20479;-78
2022/10/23 11:06:48;;;;;;;7.65;5.55;;;;;;;;;;5015449;28;20118;-79
2022/10/23 11:09:34;;;;;;;8.00;5.45;;;;;;;;;;5018059;28;20109;-79
2022/10/23 11:12:00;;;;;;;8.75;5.88;;;;;;;;;;5035464;28;20021;-78
2022/10/23 11:14:28;;;;;;;8.05;5.40;;;;;;;;;;5032059;28;20025;-80
2022/10/23 11:17:06;;;;;;;11.45;5.93;;;;;;;;;;5032681;28;20026;-79
2022/10/23 11:19:37;;;;;;;7.60;4.97;;;;;;;;;;5014104;28;20017;-80
2022/10/23 11:22:03;;;;;;;8.82;5.57;;;;;;;;;;5033744;28;20022;-78
2022/10/23 11:24:51;;;;;;;10.70;4.88;;;;;;;;;;5034598;28;20040;-77
2022/10/23 11:27:23;;;;;;;6.53;4.65;;;;;;;;;;4997572;28;20055;-77
2022/10/23 11:29:58;;;;;;;11.40;5.15;;;;;;;;;;5011091;28;20033;-78
2022/10/23 11:32:30;;;;;;;7.25;5.18;;;;;;;;;;5034470;28;20030;-77
2022/10/23 11:34:56;;;;;;;7.70;4.85;;;;;;;;;;5035256;28;20026;-78
2022/10/23 11:37:23;;;;;;;8.07;5.15;;;;;;;;;;5016909;28;20013;-78
2022/10/23 11:39:58;;;;;;;11.80;5.07;;;;;;;;;;5034547;28;20427;-78
2022/10/23 11:42:32;;;;;;;7.85;5.15;;;;;;;;;;5034142;28;20037;-79
2022/10/23 11:44:58;;;;;;;8.38;5.60;;;;;;;;;;5015651;28;20025;-79
2022/10/23 11:47:24;;;;;;;7.47;4.88;;;;;;;;;;5014714;28;20487;-78
2022/10/23 11:49:50;;;;;;;6.47;4.93;;;;;;;;;;5033305;28;20033;-78
2022/10/23 11:52:22;;;;;;;7.53;4.97;;;;;;;;;;5015352;28;20053;-79
2022/10/23 11:54:48;;;;;;;;;;;;;;;;;;5033558;28;20060;-78
2022/10/23 11:57:16;;;;;;;5.75;4.90;;;;;;;;;;5033631;28;19909;-79
2022/10/23 11:59:45;;;;;;;7.15;5.30;;;;;;;;;;5015287;28;20060;-79
2022/10/23 12:02:30;;;;;;;8.70;5.38;;;;;;;;;;5016510;28;20025;-79
2022/10/23 12:05:18;;;;;;;9.70;5.47;;;;;;;;;;5022085;28;20021;-79
2022/10/23 12:07:45;;;;;;;11.82;5.95;;;;;;;;;;5034145;28;20033;-77
2022/10/23 12:10:21;;;;;;;8.20;5.20;;;;;;;;;;5035859;28;20037;-80
2022/10/23 12:13:05;;;;;;;9.82;5.95;;;;;;;;;;5018202;28;20025;-78
2022/10/23 12:15:35;;;;;;;8.70;5.97;;;;;;;;;;4995195;28;20108;-78
2022/10/23 12:18:15;;;;;;;7.85;6.07;;;;;;;;;;5015530;28;20025;-76
2022/10/23 12:21:00;;;;;;;8.15;6.13;;;;;;;;;;5032963;28;20025;-79
2022/10/23 12:23:34;;;;;;;6.93;4.95;;;;;;;;;;5033663;28;20036;-78
2022/10/23 12:26:03;;;;;;;7.13;4.93;;;;;;;;;;5015868;28;20029;-79
2022/10/23 12:29:01;;;;;;;6.97;5.20;;;;;;;;;;5030897;28;20029;-79
2022/10/23 12:31:46;;;;;;;7.40;4.85;;;;;;;;;;4973788;28;20038;-78
2022/10/23 12:34:12;;;;;;;8.35;5.65;;;;;;;;;;5015981;28;20625;-79
2022/10/23 12:36:50;;;;;;;7.55;5.40;;;;;;;;;;5034006;28;20049;-78
2022/10/23 12:39:36;;;;;;;8.95;6.05;;;;;;;;;;5014196;28;20116;-78
2022/10/23 12:42:03;;;;;;;7.43;5.57;;;;;;;;;;5033612;28;20415;-78
2022/10/23 12:44:31;;;;;;;7.90;5.90;;;;;;;;;;5033171;28;20026;-78
2022/10/23 12:47:07;;;;;;;11.95;5.47;;;;;;;;;;5016756;28;20045;-76
2022/10/23 12:49:34;;;;;;;6.97;5.10;;;;;;;;;;5015392;28;20190;-78
2022/10/23 12:52:17;;;;;;;13.45;6.28;;;;;;;;;;5032908;28;20185;-78
2022/10/23 12:54:46;;;;;;;10.43;6.10;;;;;;;;;;5015411;28;20025;-79
2022/10/23 12:57:19;;;;;;;12.45;5.47;;;;;;;;;;5015418;28;20030;-78
2022/10/23 12:59:46;;;;;;;8.13;5.65;;;;;;;;;;5033675;28;20056;-79
2022/10/23 13:02:26;;;;;;;7.97;6.03;;;;;;;;;;5016991;28;20036;-79
2022/10/23 13:04:53;;;;;;;11.02;5.97;;;;;;;;;;5033317;28;20144;-78
2022/10/23 13:07:20;;;;;;;9.23;5.97;;;;;;;;;;5032484;28;20083;-78
2022/10/23 13:09:46;;;;;;;10.75;6.60;;;;;;;;;;5031925;28;20396;-78
2022/10/23 13:12:18;;;;;;;11.02;6.55;;;;;;;;;;5031515;28;20024;-79
2022/10/23 13:14:54;;;;;;;9.57;6.47;;;;;;;;;;5013559;28;20028;-79
2022/10/23 13:17:20;;;;;;;8.32;5.90;;;;;;;;;;5013708;28;20017;-78
2022/10/23 13:37:16;;;;;;;8.57;6.25;;;;;;;;;;5063009;28;20092;-79
2022/10/23 13:52:26;;;;;;;10.07;7.28;;;;;;;;;;5075338;28;20048;-84
2022/10/23 13:55:22;;;;;;;9.90;6.80;;;;;;;;;;5056759;28;20021;-85
2022/10/23 13:58:25;;;;;;;10.40;8.07;;;;;;;;;;5072558;28;20195;-85
2022/10/23 14:04:18;;;;;;;10.32;7.75;;;;;;;;;;4998649;28;20447;-83
2022/10/23 14:10:24;;;;;;;11.88;7.57;;;;;;;;;;5010712;28;20083;-83
2022/10/23 14:13:09;;;;;;;10.10;7.85;;;;;;;;;;5054031;28;20094;-85
2022/10/23 14:26:09;;;;;;;14.82;8.45;;;;;;;;;;5085121;28;20087;-82
2022/10/23 14:31:40;;;;;;;14.02;6.70;;;;;;;;;;5072948;28;20037;-83
2022/10/23 14:34:24;;;;;;;11.43;7.13;;;;;;;;;;5082723;28;20028;-83
2022/10/23 14:37:32;;;;;;;;;;;;;;;;;;;;;
2022/10/23 14:43:20;;;;;;;13.20;8.25;;;;;;;;;;5012779;28;20173;-83
2022/10/23 14:49:19;;;;;;;11.45;8.23;;;;;;;;;;5001627;28;20026;-82
2022/10/23 14:52:09;;;;;;;11.23;7.43;;;;;;;;;;4981795;28;20030;-83
2022/10/23 14:54:53;;;;;;;13.75;8.60;;;;;;;;;;4979457;28;20031;-84
2022/10/23 15:03:54;;;;;;;10.30;7.10;;;;;;;;;;4980033;28;20038;-84
2022/10/23 15:24:10;;;;;;;;;;;;;;;;;;;;;
2022/10/23 15:26:55;;;;;;;12.88;8.60;;;;;;;;;;5014903;28;20140;-83
2022/10/23 15:32:20;;;;;;;14.90;9.70;;;;;;;;;;5053831;28;20032;-81
2022/10/23 15:46:59;;;;;;;13.48;10.20;;;;;;;;;;4997292;28;20034;-80
2022/10/23 16:14:09;;;;;;;15.75;10.52;;;;;;;;;;5055389;28;20359;-83
2022/10/23 16:36:09;;;;;;;14.98;10.05;;;;;;;;;;888478;26;20462;-84
2022/10/23 16:53:52;;;;;;;14.38;10.50;;;;;;;;;;5012043;28;20061;-82
2022/10/23 17:00:21;;;;;;;18.70;11.85;;;;;;;;;;5075876;28;20044;-82
2022/10/23 17:03:35;;;;;;;;;;;;;;;;;;;;;
2022/10/23 17:06:38;;;;;;;;;;;;;;;;;;;;;
2022/10/23 17:09:38;;;;;;;16.13;11.65;;;;;;;;;;5057877;28;20074;-83
2022/10/23 17:19:09;;;;;;;17.58;12.70;;;;;;;;;;4943173;29;20241;-83
2022/10/23 17:22:06;;;;;;;;;;;;;;;;;;;;;
2022/10/23 17:38:44;;;;;;;20.67;15.35;;;;;;;;;;3049622;22;20068;-82
2022/10/23 17:41:15;;;;;;;21.67;14.32;;;;;;;;;;5045830;28;20494;-80
2022/10/23 17:52:31;;;;;;;26.17;18.02;;;;;;;;;;5112114;22;20111;-83
2022/10/23 18:31:30;;;;;;;;;;;;;;;;;;;;;
2022/10/23 19:08:18;;;;;;;30.30;20.50;;;;;;;;;;5138530;22;20055;-85
2022/10/23 19:10:47;;;;;;;26.25;19.17;;;;;;;;;;5042968;28;20025;-83
2022/10/23 19:13:15;;;;;;;27.23;19.52;;;;;;;;;;5037628;28;20384;-83
2022/10/23 19:15:41;;;;;;;28.67;18.92;;;;;;;;;;5046123;28;20348;-83
2022/10/23 19:18:08;;;;;;;31.30;18.17;;;;;;;;;;5056727;28;20071;-82
2022/10/23 19:20:49;;;;;;;24.00;17.90;;;;;;;;;;5038836;28;20505;-83
2022/10/23 19:23:37;;;;;;;25.75;17.30;;;;;;;;;;5037673;28;20029;-84
2022/10/23 19:30:07;;;;;;;22.58;15.35;;;;;;;;;;4986090;28;20099;-81
2022/10/23 19:32:44;;;;;;;26.77;15.57;;;;;;;;;;5060072;28;20033;-81
2022/10/23 19:35:45;;;;;;;23.27;15.60;;;;;;;;;;5042296;28;20460;-85
2022/10/23 19:38:46;;;;;;;25.80;15.55;;;;;;;;;;5062583;28;20629;-85
2022/10/23 19:41:55;;;;;;;;;;;;;;;;;;;;;
2022/10/23 19:50:37;;;;;;;22.83;15.18;;;;;;;;;;4973028;28;20124;-84
2022/10/23 19:53:15;;;;;;;23.40;15.40;;;;;;;;;;4965107;28;20051;-84
2022/10/23 19:56:07;;;;;;;21.35;14.90;;;;;;;;;;4962838;28;20042;-83
2022/10/23 20:01:16;;;;;;;20.83;14.68;;;;;;;;;;4673141;26;20135;-81
2022/10/23 20:04:16;;;;;;;25.27;16.55;;;;;;;;;;5077792;28;20429;-80
2022/10/23 20:10:14;;;;;;;;;;;;;;;;;;;;;
2022/10/23 20:12:43;;;;;;;23.00;16.90;;;;;;;;;;4929346;28;20099;-81
2022/10/23 20:15:15;;;;;;;22.75;17.20;;;;;;;;;;5056622;23;20041;-83
2022/10/23 20:17:41;;;;;;;27.70;17.75;;;;;;;;;;5050936;28;20451;-79
2022/10/23 20:20:15;;;;;;;26.25;17.38;;;;;;;;;;5049959;28;20025;-78
2022/10/23 20:22:46;;;;;;;23.80;17.13;;;;;;;;;;5050652;28;20132;-78
2022/10/23 20:25:14;;;;;;;30.45;18.98;;;;;;;;;;5051127;28;20475;-78
2022/10/23 20:27:43;;;;;;;22.65;16.90;;;;;;;;;;5051181;28;20047;-81
2022/10/23 20:30:15;;;;;;;20.80;15.38;;;;;;;;;;5034124;28;20033;-79
2022/10/23 20:32:47;;;;;;;24.13;17.52;;;;;;;;;;5053611;28;20037;-81
2022/10/23 20:35:25;;;;;;;31.15;18.02;;;;;;;;;;5035719;28;20062;-80
2022/10/23 20:41:21;;;;;;;27.52;18.10;;;;;;;;;;5043120;28;20067;-83
2022/10/23 20:43:44;;;;;;;28.90;17.35;;;;;;;;;;5033140;28;20056;-80
2022/10/23 20:46:16;;;;;;;24.90;16.10;;;;;;;;;;5036532;28;20685;-80
2022/10/23 20:50:08;;;;;;;26.15;15.98;;;;;;;;;;5034533;28;20028;-80
2022/10/23 20:52:03;;;;;;;25.10;16.65;;;;;;;;;;5027825;28;20514;-80
2022/10/23 20:54:30;;;;;;;25.73;16.92;;;;;;;;;;5050697;28;20021;-78
2022/10/23 20:56:57;;;;;;;25.00;18.05;;;;;;;;;;5048991;28;20037;-79
2022/10/23 20:59:23;;;;;;;23.48;15.52;;;;;;;;;;5049071;28;20360;-78
2022/10/23 21:01:51;;;;;;;19.67;15.93;;;;;;;;;;5048599;28;20021;-78
2022/10/23 21:04:18;;;;;;;25.08;18.83;;;;;;;;;;5051263;28;20021;-78
2022/10/23 21:06:45;;;;;;;22.08;15.25;;;;;;;;;;5053002;28;20164;-79
2022/10/23 21:09:10;;;;;;;21.13;15.65;;;;;;;;;;5051162;28;20398;-77
2022/10/23 21:11:40;;;;;;;19.17;14.55;;;;;;;;;;5035700;28;20029;-79
2022/10/23 21:14:08;;;;;;;21.67;15.57;;;;;;;;;;5055069;28;20033;-78
2022/10/23 21:16:36;;;;;;;20.17;15.05;;;;;;;;;;5042782;28;20025;-80
2022/10/23 21:19:05;;;;;;;20.58;15.55;;;;;;;;;;5043395;28;20029;-80
2022/10/23 21:21:34;;;;;;;21.08;14.52;;;;;;;;;;5044266;28;20021;-79
2022/10/23 21:24:04;;;;;;;19.02;14.32;;;;;;;;;;5041606;28;20063;-80
2022/10/23 21:26:32;;;;;;;18.35;14.75;;;;;;;;;;5057792;28;20032;-79
2022/10/23 21:28:59;;;;;;;22.40;15.07;;;;;;;;;;5043082;28;20040;-80
2022/10/23 21:31:25;;;;;;;19.33;14.75;;;;;;;;;;5047878;28;20025;-80
2022/10/23 21:33:53;;;;;;;24.00;17.70;;;;;;;;;;5039263;28;20025;-81
2022/10/23 21:36:48;;;;;;;25.27;17.02;;;;;;;;;;5043148;28;20021;-81